الصفحة الرئيسية
METAR-TAF:

METAR-TAF

مطار :

هونيارا, جوادالكانال, جزر سولومون

دائرة عرض: 09-25S, خط طول: 160-03E, ارتفاع: 8 متر

مراقبة الطقس الحالي

تاريخ ووقت الإصدار 1ساعة و 1 دقيقة قبل الساعة 03:00UTC
ريح 8 عقدة من الشرق
درجة الحرارة 31°درجة مئوية
الرطوبة 71%
ضغط 1011 hPa
الرؤية 10 كم أو أكثر
غيوم متفرقة على ارتفاع 1800 قدم
غيوم قليلة على ارتفاع 2000 قدم, مزنة ركامية.
غيوم مفككة على ارتفاع 3000 قدم
زخات

METAR: AGGH 270300Z 09008KT 9999 SCT018 FEW020CB BKN030 31/25 Q1011 CB ASSW SH TO W,N,NE

زمن: 15:01 (04:01 UTC)

توقعات

تاريخ ووقت الإصدار 4ساعات و 51 دقيقة قبل الساعة 23:10UTC
التوقعات صالحة من27 الساعة 00 UTC إلى 27 الساعة 24 UTC
ريح 10 عقدة من الشمال الشرقي
الرؤية 10 كم أو أكثر
غيوم متفرقة على ارتفاع 1800 قدم
غيوم متفرقة على ارتفاع 3000 قدم
نظرية الاحتمالات 30%
بين IN و TE UTC
الرؤية: 1013 متر
غيوم مفككة على ارتفاع 1500 قدم
غيوم قليلة على ارتفاع 1600 قدم, مزنة ركامية.

TAF: AGGH 262310Z 2700/2724 05010KT 9999 SCT018 SCT030 PROB30 INTER 2700/2706 8000 -TSSH BKN015 FEW016CB T 29 30 30 28 Q 1014 1012 1011 1013

أرصاد الطقس والتوقعات من أكثر من 4000 مطار (تقارير الطقس للمطار METAR والتنبؤ بالطقس بالمطارTAF).

المحطات المتاحة هي النقط الصفراء والحمراء على الخريطة.

حرك المؤشر فوق النقطة لمعرفة اسم المحطة.

ثم انقر لمعرفة أرصاد وتوقعات الطقس.

لتغيير الخارطة: اضغط على الأزرار الخضراء مع رمز الصليب الأسود للتكبير. على الزر الأخضر مع شرطة للتصغير، أو على الأسهم الخضراء للخرائط المجاورة.


METAR-TAF: